createdAt,value
2019-05-12T00:02:02.835Z,7.17
2019-05-12T00:04:35.117Z,6.23
2019-05-12T00:07:08.759Z,5.90
2019-05-12T00:09:41.143Z,5.33
2019-05-12T00:12:13.400Z,6.47
2019-05-12T00:14:45.687Z,4.37
2019-05-12T00:17:18.862Z,9.20
2019-05-12T00:19:51.402Z,6.90
2019-05-12T00:22:23.644Z,7.07
2019-05-12T00:24:58.292Z,7.73
2019-05-12T00:27:29.876Z,8.27
2019-05-12T00:30:02.148Z,5.67
2019-05-12T00:32:34.871Z,6.63
2019-05-12T00:35:07.859Z,7.47
2019-05-12T00:37:40.389Z,6.13
2019-05-12T00:40:12.604Z,9.53
2019-05-12T00:42:44.805Z,8.07
2019-05-12T00:45:18.096Z,7.23
2019-05-12T00:47:50.438Z,8.13
2019-05-12T00:50:22.697Z,8.50
2019-05-12T00:52:54.948Z,8.07
2019-05-12T00:55:28.964Z,8.77
2019-05-12T00:58:01.116Z,5.17
2019-05-12T01:00:33.327Z,5.27
2019-05-12T01:03:08.408Z,11.77
2019-05-12T01:05:39.492Z,8.23
2019-05-12T01:08:11.700Z,6.03
2019-05-12T01:10:47.800Z,7.47
2019-05-12T01:13:19.369Z,5.83
2019-05-12T01:15:51.613Z,7.03
2019-05-12T01:18:23.823Z,10.60
2019-05-12T01:20:58.267Z,6.50
2019-05-12T01:23:29.956Z,5.50
2019-05-12T01:26:02.155Z,7.87
2019-05-12T01:28:34.378Z,7.80
2019-05-12T01:31:08.579Z,8.13
2019-05-12T01:33:40.959Z,7.07
2019-05-12T01:36:15.511Z,8.13
2019-05-12T01:38:48.306Z,10.60
2019-05-12T01:41:20.639Z,7.10
2019-05-12T01:43:52.909Z,8.37
2019-05-12T01:46:25.139Z,8.80
2019-05-12T01:48:59.113Z,9.90
2019-05-12T01:51:31.398Z,7.57
2019-05-12T01:54:13.591Z,9.37
2019-05-12T01:56:38.262Z,7.80
2019-05-12T01:59:10.758Z,8.57
2019-05-12T02:01:42.962Z,7.33
2019-05-12T02:04:15.271Z,8.80
2019-05-12T02:06:48.568Z,6.80
2019-05-12T02:09:20.908Z,8.03
2019-05-12T02:11:53.143Z,5.70
2019-05-12T02:14:27.477Z,8.47
2019-05-12T02:16:59.289Z,12.13
2019-05-12T02:19:31.507Z,10.60
2019-05-12T02:22:03.755Z,11.87
2019-05-12T02:24:36.021Z,7.03
2019-05-12T02:27:08.363Z,8.53
2019-05-12T02:29:40.637Z,9.27
2019-05-12T02:32:12.883Z,9.60
2019-05-12T02:34:45.728Z,7.77
2019-05-12T02:37:18.146Z,8.30
2019-05-12T02:39:50.353Z,8.20
2019-05-12T02:42:24.382Z,7.67
2019-05-12T02:44:56.536Z,7.80
2019-05-12T02:47:28.753Z,6.57
2019-05-12T02:50:00.966Z,8.57
2019-05-12T02:52:34.893Z,7.37
2019-05-12T02:55:07.419Z,10.30
2019-05-12T02:57:45.037Z,8.50
2019-05-12T03:00:16.290Z,8.60
2019-05-12T03:02:48.510Z,13.07
2019-05-12T03:05:20.706Z,9.80
2019-05-12T03:07:55.233Z,7.07
2019-05-12T03:10:26.865Z,8.13
2019-05-12T03:12:59.084Z,9.93
2019-05-12T03:15:31.306Z,7.43
2019-05-12T03:18:06.172Z,13.03
2019-05-12T03:20:37.456Z,8.63
2019-05-12T03:23:09.714Z,8.43
2019-05-12T03:25:45.377Z,8.23
2019-05-12T03:28:16.349Z,8.40
2019-05-12T03:30:49.431Z,9.23
2019-05-12T03:33:33.602Z,7.47
2019-05-12T03:36:00.668Z,5.47
2019-05-12T03:38:31.693Z,6.30
2019-05-12T03:41:05.302Z,10.43
2019-05-12T03:43:37.938Z,6.97
2019-05-12T03:46:10.174Z,6.73
2019-05-12T03:48:45.421Z,9.97
2019-05-12T03:51:16.371Z,7.30
2019-05-12T03:53:48.633Z,9.47
2019-05-12T03:56:20.854Z,10.27
2019-05-12T03:58:54.096Z,7.43
2019-05-12T04:01:26.502Z,9.30
2019-05-12T04:03:58.723Z,7.43
2019-05-12T04:06:30.962Z,8.07
2019-05-12T04:09:04.753Z,8.10
2019-05-12T04:11:36.999Z,7.47
2019-05-12T04:14:09.251Z,7.87
2019-05-12T04:16:44.876Z,10.87
2019-05-12T04:19:15.941Z,7.57
2019-05-12T04:21:48.192Z,8.33
2019-05-12T04:24:20.435Z,10.30
2019-05-12T04:26:55.152Z,8.70
2019-05-12T04:29:27.679Z,7.47
2019-05-12T04:31:59.939Z,9.10
2019-05-12T04:34:34.304Z,9.80
2019-05-12T04:37:07.257Z,11.60
2019-05-12T04:39:39.461Z,8.23
2019-05-12T04:42:14.680Z,9.43
2019-05-12T04:44:45.609Z,6.83
2019-05-12T04:47:17.909Z,6.67
2019-05-12T04:49:50.174Z,6.80
2019-05-12T04:52:24.848Z,6.30
2019-05-12T04:54:56.311Z,6.30
2019-05-12T04:57:28.350Z,6.23
2019-05-12T05:00:00.567Z,6.30
2019-05-12T05:02:36.275Z,6.17
2019-05-12T05:05:06.841Z,7.77
2019-05-12T05:07:39.109Z,8.40
2019-05-12T05:10:14.277Z,8.07
2019-05-12T05:12:45.275Z,7.00
2019-05-12T05:15:17.492Z,8.33
2019-05-12T05:17:49.740Z,4.57
2019-05-12T05:20:23.964Z,5.53
2019-05-12T05:22:56.336Z,6.77
2019-05-12T05:25:28.535Z,4.23
2019-05-12T05:28:00.731Z,9.77
2019-05-12T05:30:34.091Z,5.30
2019-05-12T05:33:10.256Z,5.20
2019-05-12T05:35:43.597Z,5.97
2019-05-12T05:38:20.598Z,5.67
2019-05-12T05:40:50.126Z,4.57
2019-05-12T05:43:24.171Z,6.50
2019-05-12T05:46:02.499Z,6.43
2019-05-12T05:48:32.177Z,6.07
2019-05-12T05:51:08.805Z,4.53
2019-05-12T05:53:38.644Z,6.27
2019-05-12T05:56:10.879Z,3.43
2019-05-12T05:58:47.007Z,5.87
2019-05-12T06:01:17.094Z,5.33
2019-05-12T06:03:49.291Z,4.57
2019-05-12T06:06:23.650Z,4.40
2019-05-12T06:08:55.452Z,5.80
2019-05-12T06:11:28.558Z,6.10
2019-05-12T06:14:03.256Z,7.07
2019-05-12T06:16:35.043Z,6.07
2019-05-12T06:19:07.312Z,7.87
2019-05-12T06:21:39.525Z,4.70
2019-05-12T06:24:15.539Z,4.83
2019-05-12T06:26:56.617Z,6.20
2019-05-12T06:29:21.846Z,6.63
2019-05-12T06:31:54.311Z,6.70
2019-05-12T06:34:26.660Z,4.77
2019-05-12T06:37:03.060Z,4.53
2019-05-12T06:39:34.356Z,7.53
2019-05-12T06:42:12.347Z,5.47
2019-05-12T06:44:43.758Z,4.33
2019-05-12T06:47:15.753Z,5.80
2019-05-12T06:49:48.872Z,6.03
2019-05-12T06:52:23.714Z,6.27
2019-05-12T06:54:56.822Z,4.87
2019-05-12T06:57:29.193Z,3.90
2019-05-12T07:00:01.487Z,3.77
2019-05-12T07:02:37.124Z,2.33
2019-05-12T07:05:07.942Z,6.17
2019-05-12T07:07:44.301Z,3.30
2019-05-12T07:10:35.479Z,4.60
2019-05-12T07:12:58.972Z,9.23
2019-05-12T07:15:23.851Z,2.17
2019-05-12T07:17:56.025Z,3.73
2019-05-12T07:20:29.299Z,3.80
2019-05-12T07:23:04.030Z,4.60
2019-05-12T07:25:36.967Z,4.03
2019-05-12T07:28:09.359Z,2.90
2019-05-12T07:30:43.894Z,1.90
2019-05-12T07:33:15.654Z,2.63
2019-05-12T07:35:48.006Z,2.90
2019-05-12T07:38:21.669Z,3.13
2019-05-12T07:40:54.193Z,4.47
2019-05-12T07:43:26.389Z,1.37
2019-05-12T07:46:02.524Z,1.90
2019-05-12T07:48:33.437Z,1.87
2019-05-12T07:51:06.280Z,3.07
2019-05-12T07:53:38.490Z,3.60
2019-05-12T07:56:10.708Z,2.63
2019-05-12T07:58:47.471Z,2.87
2019-05-12T08:01:17.154Z,1.80
2019-05-12T08:03:51.025Z,4.27
2019-05-12T08:06:24.415Z,3.90
2019-05-12T08:08:59.033Z,6.33
2019-05-12T08:11:36.664Z,4.10
2019-05-12T08:14:04.717Z,7.13
2019-05-12T08:16:37.229Z,4.73
2019-05-12T08:19:14.994Z,5.90
2019-05-12T08:21:49.116Z,2.47
2019-05-12T08:24:18.857Z,2.40
2019-05-12T08:27:01.455Z,3.00
2019-05-12T08:29:25.073Z,3.67
2019-05-12T08:31:57.346Z,3.83
2019-05-12T08:34:29.630Z,5.23
2019-05-12T08:37:01.813Z,3.60
2019-05-12T08:39:34.464Z,2.30
2019-05-12T08:42:06.689Z,2.43
2019-05-12T08:44:40.717Z,4.33
2019-05-12T08:47:15.223Z,4.30
2019-05-12T08:49:55.151Z,2.50
2019-05-12T08:52:23.540Z,4.40
2019-05-12T08:54:55.875Z,3.67
2019-05-12T08:57:34.835Z,3.47
2019-05-12T09:00:03.426Z,3.87
2019-05-12T09:02:39.854Z,1.10
2019-05-12T09:05:10.340Z,6.10
2019-05-12T09:07:43.565Z,3.27
2019-05-12T09:10:15.986Z,4.03
2019-05-12T09:12:48.259Z,4.03
2019-05-12T09:15:20.538Z,2.03
2019-05-12T09:17:56.836Z,5.73
2019-05-12T09:20:27.743Z,2.60
2019-05-12T09:23:00.858Z,2.40
2019-05-12T09:25:34.338Z,2.93
2019-05-12T09:28:09.172Z,3.97
2019-05-12T09:30:47.520Z,4.60
2019-05-12T09:33:15.403Z,2.07
2019-05-12T09:35:47.640Z,4.03
2019-05-12T09:38:21.620Z,3.07
2019-05-12T09:41:00.723Z,4.90
2019-05-12T09:43:28.438Z,2.53
2019-05-12T09:46:00.787Z,2.23
2019-05-12T09:48:33.804Z,1.60
2019-05-12T09:51:08.023Z,3.07
2019-05-12T09:53:50.583Z,2.73
2019-05-12T09:56:16.595Z,3.53
2019-05-12T09:58:59.018Z,1.33
2019-05-12T10:01:24.210Z,5.80
2019-05-12T10:03:56.541Z,1.80
2019-05-12T10:06:29.553Z,4.60
2019-05-12T10:09:03.460Z,4.93
2019-05-12T10:11:36.024Z,4.40
2019-05-12T10:14:10.767Z,2.10
2019-05-12T10:16:45.572Z,2.87
2019-05-12T10:19:17.451Z,5.83
2019-05-12T10:21:55.180Z,1.97
2019-05-12T10:24:23.744Z,3.33
2019-05-12T10:26:56.016Z,2.30
2019-05-12T10:29:30.692Z,4.27
2019-05-12T10:32:03.985Z,4.97
2019-05-12T10:34:40.268Z,6.43
2019-05-12T10:37:10.244Z,4.67
2019-05-12T10:39:42.501Z,3.17
2019-05-12T10:42:14.943Z,5.77
2019-05-12T10:44:47.031Z,3.77
2019-05-12T10:47:19.524Z,4.07
2019-05-12T10:49:53.790Z,3.80
2019-05-12T10:52:29.338Z,4.60
2019-05-12T10:54:59.688Z,4.53
2019-05-12T10:57:33.364Z,2.33
2019-05-12T11:00:05.807Z,4.37
2019-05-12T11:02:38.043Z,4.20
2019-05-12T11:05:20.678Z,3.37
2019-05-12T11:07:45.374Z,4.10
2019-05-12T11:10:20.146Z,4.20
2019-05-12T11:12:51.538Z,3.63
2019-05-12T11:15:24.504Z,4.53
2019-05-12T11:17:57.256Z,3.50
2019-05-12T11:20:30.173Z,3.27
2019-05-12T11:23:04.799Z,3.93
2019-05-12T11:25:37.050Z,2.43
2019-05-12T11:28:09.461Z,2.37
2019-05-12T11:30:43.670Z,3.93
2019-05-12T11:33:15.765Z,4.97
2019-05-12T11:35:48.230Z,5.30
2019-05-12T11:38:20.433Z,4.53
2019-05-12T11:40:53.794Z,4.50
2019-05-12T11:43:26.256Z,5.83
2019-05-12T11:45:58.872Z,3.50
2019-05-12T11:48:31.132Z,2.60
2019-05-12T11:51:03.963Z,6.97
2019-05-12T11:53:36.502Z,5.10
2019-05-12T11:56:09.695Z,5.50
2019-05-12T11:58:47.367Z,6.10
2019-05-12T12:01:16.006Z,1.97
2019-05-12T12:03:48.283Z,3.50
2019-05-12T12:06:20.589Z,4.83
2019-05-12T12:08:53.678Z,5.63
2019-05-12T12:11:28.114Z,3.63
2019-05-12T12:14:05.567Z,3.33
2019-05-12T12:16:34.185Z,4.27
2019-05-12T12:19:06.375Z,3.27
2019-05-12T12:21:40.379Z,3.80
2019-05-12T12:24:13.576Z,3.02
2019-05-12T12:26:46.791Z,3.90
2019-05-12T12:29:19.800Z,2.42
2019-05-12T12:31:52.636Z,3.52
2019-05-12T12:34:30.154Z,2.87
2019-05-12T12:37:00.001Z,3.45
2019-05-12T12:39:32.793Z,3.40
2019-05-12T12:42:05.619Z,2.98
2019-05-12T12:44:38.481Z,3.12
2019-05-12T12:47:11.282Z,4.12
2019-05-12T12:49:47.672Z,3.02
2019-05-12T12:52:18.643Z,3.15
2019-05-12T12:54:51.443Z,2.42
2019-05-12T12:57:24.226Z,4.50
2019-05-12T12:59:57.049Z,2.98
2019-05-12T13:02:29.867Z,5.47
2019-05-12T13:05:02.662Z,3.00
2019-05-12T13:07:35.469Z,1.82
2019-05-12T13:10:09.780Z,2.83
2019-05-12T13:12:43.817Z,4.10
2019-05-12T13:15:16.833Z,3.42
2019-05-12T13:17:49.611Z,2.72
2019-05-12T13:20:23.849Z,3.75
2019-05-12T13:22:56.807Z,4.25
2019-05-12T13:25:29.697Z,3.00
2019-05-12T13:28:10.369Z,6.45
2019-05-12T13:30:46.378Z,3.33
2019-05-12T13:33:14.751Z,3.65
2019-05-12T13:35:50.131Z,2.72
2019-05-12T13:38:20.608Z,2.15
2019-05-12T13:40:54.170Z,3.87
2019-05-12T13:43:28.197Z,2.33
2019-05-12T13:46:01.010Z,3.70
2019-05-12T13:48:33.811Z,2.08
2019-05-12T13:51:12.396Z,4.37
2019-05-12T13:53:46.350Z,2.92
2019-05-12T13:56:19.187Z,5.00
2019-05-12T13:58:50.199Z,2.80
2019-05-12T14:01:24.861Z,4.15
2019-05-12T14:03:58.343Z,2.53
2019-05-12T14:06:32.960Z,2.37
2019-05-12T14:09:04.532Z,4.07
2019-05-12T14:11:36.882Z,3.10
2019-05-12T14:14:15.166Z,2.93
2019-05-12T14:16:52.434Z,3.83
2019-05-12T14:19:19.006Z,4.30
2019-05-12T14:21:54.274Z,4.80
2019-05-12T14:24:26.394Z,3.20
2019-05-12T14:26:58.670Z,2.97
2019-05-12T14:29:30.914Z,2.53
2019-05-12T14:32:05.427Z,2.33
2019-05-12T14:34:37.136Z,3.77
2019-05-12T14:37:10.479Z,3.10
2019-05-12T14:39:48.098Z,4.97
2019-05-12T14:42:17.307Z,4.40
2019-05-12T14:44:49.927Z,4.67
2019-05-12T14:47:25.745Z,6.57
2019-05-12T14:49:57.304Z,4.23
2019-05-12T14:52:29.373Z,2.57
2019-05-12T14:55:03.431Z,3.50
2019-05-12T14:57:39.226Z,2.37
2019-05-12T15:00:11.130Z,1.93
2019-05-12T15:02:43.942Z,2.13
2019-05-12T15:05:16.315Z,2.00
2019-05-12T15:07:56.765Z,4.67
2019-05-12T15:10:23.434Z,6.40
2019-05-12T15:12:56.025Z,3.17
2019-05-12T15:15:28.268Z,1.33
2019-05-12T15:18:03.547Z,2.80
2019-05-12T15:20:34.489Z,5.03
2019-05-12T15:23:06.975Z,4.90
2019-05-12T15:25:39.191Z,2.17
2019-05-12T15:28:11.505Z,2.40
2019-05-12T15:30:43.792Z,2.87
2019-05-12T15:33:17.109Z,2.97
2019-05-12T15:35:49.304Z,4.90
2019-05-12T15:38:23.767Z,3.00
2019-05-12T15:40:56.582Z,3.80
2019-05-12T15:43:28.795Z,3.00
2019-05-12T15:46:01.367Z,7.40
2019-05-12T15:48:34.311Z,4.67
2019-05-12T15:51:09.305Z,4.07
2019-05-12T15:53:44.401Z,3.63
2019-05-12T15:56:22.616Z,4.23
2019-05-12T15:58:49.497Z,4.30
2019-05-12T16:01:24.020Z,4.73
2019-05-12T16:03:55.687Z,4.40
2019-05-12T16:06:27.928Z,4.57
2019-05-12T16:09:00.064Z,5.57
2019-05-12T16:11:33.385Z,4.03
2019-05-12T16:14:05.688Z,5.33
2019-05-12T16:16:42.444Z,2.80
2019-05-12T16:19:14.682Z,5.00
2019-05-12T16:21:46.655Z,3.30
2019-05-12T16:24:18.938Z,5.27
2019-05-12T16:26:52.146Z,4.43
2019-05-12T16:29:25.394Z,3.30
2019-05-12T16:31:57.604Z,3.73
2019-05-12T16:34:29.869Z,3.47
2019-05-12T16:37:04.076Z,7.17
2019-05-12T16:39:43.820Z,2.43
2019-05-12T16:42:10.788Z,4.73
2019-05-12T16:44:44.029Z,3.23
2019-05-12T16:47:18.769Z,2.37
2019-05-12T16:49:50.389Z,4.07
2019-05-12T16:52:24.402Z,3.23
2019-05-12T16:54:56.624Z,2.57
2019-05-12T16:57:28.816Z,2.03
2019-05-12T17:00:03.635Z,3.50
2019-05-12T17:02:41.826Z,5.10
2019-05-12T17:05:17.670Z,2.43
2019-05-12T17:07:44.312Z,5.40
2019-05-12T17:10:17.011Z,2.27
2019-05-12T17:12:49.312Z,3.63
2019-05-12T17:15:23.540Z,3.60
2019-05-12T17:18:01.147Z,3.23
2019-05-12T17:20:29.547Z,7.83
2019-05-12T17:23:03.399Z,3.53
2019-05-12T17:25:36.136Z,4.60
2019-05-12T17:28:08.483Z,1.53
2019-05-12T17:30:40.774Z,2.87
2019-05-12T17:33:22.220Z,4.33
2019-05-12T17:35:47.144Z,5.33
2019-05-12T17:38:20.255Z,6.00
2019-05-12T17:40:58.809Z,6.20
2019-05-12T17:43:27.222Z,4.00
2019-05-12T17:46:01.313Z,3.40
2019-05-12T17:48:37.368Z,3.70
2019-05-12T17:51:07.335Z,3.93
2019-05-12T17:53:40.464Z,2.43
2019-05-12T17:56:14.051Z,2.50
2019-05-12T17:58:47.538Z,2.83
2019-05-12T18:01:23.015Z,2.57
2019-05-12T18:03:54.032Z,2.07
2019-05-12T18:06:30.772Z,2.40
2019-05-12T18:09:00.224Z,0.73
2019-05-12T18:11:33.983Z,3.13
2019-05-12T18:14:07.192Z,5.40
2019-05-12T18:16:43.181Z,3.13
2019-05-12T18:19:15.432Z,3.30
2019-05-12T18:21:48.828Z,5.40
2019-05-12T18:24:21.055Z,2.07
2019-05-12T18:26:58.886Z,4.00
2019-05-12T18:29:27.340Z,2.00
2019-05-12T18:31:59.593Z,3.73
2019-05-12T18:34:33.998Z,1.87
2019-05-12T18:37:05.899Z,3.47
2019-05-12T18:39:38.122Z,3.03
2019-05-12T18:42:10.409Z,3.07
2019-05-12T18:44:43.897Z,4.33
2019-05-12T18:47:22.296Z,2.43
2019-05-12T18:49:50.428Z,1.40
2019-05-12T18:52:23.587Z,2.97
2019-05-12T18:54:57.798Z,3.60
2019-05-12T18:57:30.213Z,2.20
2019-05-12T19:00:04.903Z,1.97
2019-05-12T19:02:36.516Z,5.20
2019-05-12T19:05:12.974Z,3.63
2019-05-12T19:07:43.906Z,2.10
2019-05-12T19:10:16.426Z,3.80
2019-05-12T19:12:51.563Z,3.10
2019-05-12T19:15:22.716Z,5.53
2019-05-12T19:17:55.273Z,2.73
2019-05-12T19:20:31.299Z,2.97
2019-05-12T19:23:03.601Z,6.47
2019-05-12T19:25:40.264Z,3.50
2019-05-12T19:28:10.477Z,4.67
2019-05-12T19:30:43.798Z,7.93
2019-05-12T19:33:16.250Z,3.97
2019-05-12T19:35:50.515Z,5.40
2019-05-12T19:38:23.939Z,4.23
2019-05-12T19:41:00.771Z,5.10
2019-05-12T19:43:30.547Z,3.97
2019-05-12T19:46:04.679Z,2.93
2019-05-12T19:48:46.506Z,6.70
2019-05-12T19:51:22.966Z,3.17
2019-05-12T19:53:44.886Z,2.60
2019-05-12T19:56:19.007Z,2.93
2019-05-12T19:58:53.599Z,2.87
2019-05-12T20:01:32.221Z,2.97
2019-05-12T20:04:00.057Z,5.67
2019-05-12T20:06:33.602Z,4.30
2019-05-12T20:09:10.194Z,2.47
2019-05-12T20:11:39.889Z,5.93
2019-05-12T20:14:16.626Z,2.67
2019-05-12T20:16:46.240Z,6.07
2019-05-12T20:19:19.956Z,4.70
2019-05-12T20:21:54.329Z,4.87
2019-05-12T20:24:26.422Z,4.17
2019-05-12T20:26:58.693Z,3.00
2019-05-12T20:29:35.246Z,4.67
2019-05-12T20:32:04.955Z,9.57
2019-05-12T20:34:48.523Z,5.13
2019-05-12T20:37:14.345Z,3.07
2019-05-12T20:39:45.468Z,2.60
2019-05-12T20:42:17.706Z,5.30
2019-05-12T20:44:51.302Z,4.43
2019-05-12T20:47:24.080Z,5.93
2019-05-12T20:49:56.709Z,3.13
2019-05-12T20:52:28.945Z,2.60
2019-05-12T20:55:03.507Z,4.33
2019-05-12T20:57:40.080Z,3.00
2019-05-12T21:00:09.128Z,5.70
2019-05-12T21:02:43.998Z,3.30
2019-05-12T21:05:19.916Z,5.63
2019-05-12T21:07:49.673Z,4.37
2019-05-12T21:10:26.422Z,4.80
2019-05-12T21:12:55.865Z,2.17
2019-05-12T21:15:40.666Z,5.33
2019-05-12T21:18:06.851Z,3.60
2019-05-12T21:20:36.003Z,5.80
2019-05-12T21:23:08.288Z,3.80
2019-05-12T21:25:43.889Z,4.03
2019-05-12T21:28:14.956Z,6.13
2019-05-12T21:30:48.261Z,6.07
2019-05-12T21:33:23.877Z,5.07
2019-05-12T21:35:55.149Z,5.40
2019-05-12T21:38:29.612Z,3.97
2019-05-12T21:41:02.147Z,4.43
2019-05-12T21:43:35.236Z,6.13
2019-05-12T21:46:12.256Z,4.83
2019-05-12T21:48:41.421Z,4.77
2019-05-12T21:51:18.494Z,6.10
2019-05-12T21:53:50.553Z,4.90
2019-05-12T21:56:24.425Z,4.00
2019-05-12T21:58:58.167Z,6.07
2019-05-12T22:01:35.129Z,3.13
2019-05-12T22:04:05.383Z,6.03
2019-05-12T22:06:37.843Z,4.83
2019-05-12T22:09:10.372Z,3.63
2019-05-12T22:11:50.633Z,3.27
2019-05-12T22:14:16.646Z,3.97
2019-05-12T22:16:48.861Z,5.73
2019-05-12T22:19:21.087Z,3.97
2019-05-12T22:21:53.743Z,4.03
2019-05-12T22:24:33.888Z,4.00
2019-05-12T22:27:02.763Z,6.90
2019-05-12T22:29:35.038Z,6.47
2019-05-12T22:32:07.349Z,5.53
2019-05-12T22:34:41.965Z,5.90
2019-05-12T22:37:13.711Z,5.50
2019-05-12T22:39:46.013Z,7.37
2019-05-12T22:42:21.673Z,5.83
2019-05-12T22:45:00.875Z,5.23
2019-05-12T22:47:26.070Z,7.90
2019-05-12T22:49:58.272Z,6.70
2019-05-12T22:52:30.523Z,5.90
2019-05-12T22:55:03.608Z,6.13
2019-05-12T22:57:40.121Z,8.67
2019-05-12T23:00:13.503Z,4.70
2019-05-12T23:02:45.519Z,9.40
2019-05-12T23:05:20.549Z,6.23
2019-05-12T23:07:51.718Z,5.90
2019-05-12T23:10:23.980Z,6.77
2019-05-12T23:13:01.614Z,6.73
2019-05-12T23:15:33.286Z,8.57
2019-05-12T23:18:05.013Z,6.13
2019-05-12T23:20:37.220Z,6.73
2019-05-12T23:23:15.417Z,7.30
2019-05-12T23:25:44.138Z,5.57
2019-05-12T23:28:16.495Z,5.40
2019-05-12T23:30:50.130Z,7.77
2019-05-12T23:33:25.404Z,6.00
2019-05-12T23:35:56.341Z,6.67
2019-05-12T23:38:30.833Z,5.53
2019-05-12T23:41:04.197Z,9.73
2019-05-12T23:43:36.573Z,6.67
2019-05-12T23:46:08.825Z,7.77
2019-05-12T23:48:41.096Z,8.60
2019-05-12T23:51:14.312Z,7.80
2019-05-12T23:53:46.896Z,8.90
2019-05-12T23:56:19.128Z,6.03
2019-05-12T23:58:53.719Z,11.27
